American B738 at Dallas on Feb 10th 2024, overran runway on landing

Last Update: February 13, 2024 / 18:28:33 GMT/Zulu time

Bookmark this article
Incident Facts

Date of incident
Feb 10, 2024

Classification
Incident

Flight number
AA-1632

Aircraft Registration
N991AN

Aircraft Type
Boeing 737-800

ICAO Type Designator
B738

Airport ICAO Code
KDFW

An American Airlines Boeing 737-800, registration N991AN performing flight AA-1632 from Washington National,DC to Dallas Ft. Worth,TX (USA) with 99 passengers and 6 crew, landed on Fort Worth's runway 17L at 19:42L (01:42Z Feb 11th) but came to a stop only on the runway end safety area past the runway end. There were no injuries and no damage. The aircraft was towed to the apron about 90 minutes after landing.

According to ADS-B data the aircraft touched down in the runway's touch down zone about 520 meters down the runway at 152 knots over ground and at 600 feet MSL (according to standard pressure, Dallas Ft. Worth runways' elevations are about 600 feet MSL) and began deceleration, the aircraft slowed through 132 knots over ground about 990 meters down the runway (at 600 feet MSL) and slowed through 90 knots about 1580 meters down the runway (at 600 feet MSL), only then the aircraft's transponder began to indicate the aircraft was on the ground. The aircraft slowed through 40 knots over ground about 2460 meters down the runway and about 110 meters before the runway end, crossed the runway end at 27 knots over ground and came to a stop about 23 meters past the runway end on the paved surface of the runway end safety area.

According to local witnesses three main tyres deflated.

The FAA reported the aircraft went into the runway end safety area after experiencing a braking malfunction. The FAA have opened an investigation.



Metars:
KDFW 110353Z 04005KT 10SM OVC013 12/10 A2985 RMK AO2 SLP105 T01220100=
KDFW 110253Z 06009KT 10SM OVC014 12/10 A2983 RMK AO2 SLP100 T01220100 51006=
KDFW 110239Z 07007KT 10SM OVC014 12/10 A2983 RMK AO2 T01220100=
KDFW 110153Z 06008KT 10SM OVC015 12/10 A2983 RMK AO2 SLP099 T01220100=
KDFW 110104Z 06005KT 10SM OVC017 13/10 A2982 RMK AO2 T01280100=
KDFW 110053Z 06005KT 10SM SCT019 OVC040 13/10 A2982 RMK AO2 SLP095 T01280100=
KDFW 102353Z 09005KT 10SM SCT017 BKN040 BKN090 OVC250 13/10 A2982 RMK AO2 SLP093 60001 T01330100 10139 20117 53003=
KDFW 102253Z 09006KT 10SM FEW012 BKN045 BKN100 OVC250 14/10 A2980 RMK AO2 SLP087 T01390100=
KDFW 102153Z 09008KT 10SM FEW012 BKN043 BKN090 OVC250 14/10 A2981 RMK AO2 RAE2057 SLP090 P0000 T01390100=
KDFW 102053Z 10006KT 10SM -RA FEW012 SCT034 BKN049 BKN130 OVC250 13/11 A2981 RMK AO2 RAB38 SLP090 P0000 60001 T01330111 56022=
Aircraft Registration Data
Registration mark
N991AN
Country of Registration
United States
Date of Registration
Eqgfnmbfgjmmm Subscribe to unlock
Manufacturer
BOEING
Aircraft Model / Type
737-823
Number of Seats
ICAO Aircraft Type
B738
Year of Manufacture
Serial Number
Aircraft Address / Mode S Code (HEX)
Engine Count
Engine Manufacturer
Engine Model
Pgfnpqb emdd Subscribe to unlock
Engine Type
Pounds of Thrust
Main Owner
Jf lqdc pjpbhkAipnkA gepeigiilkAfkAjAAApglhccAfknjqmk kqAc mbcbfp ldhcc Akqpg kb Subscribe to unlock
Incident Facts

Date of incident
Feb 10, 2024

Classification
Incident

Flight number
AA-1632

Aircraft Registration
N991AN

Aircraft Type
Boeing 737-800

ICAO Type Designator
B738

Airport ICAO Code
KDFW

This article is published under license from Avherald.com. © of text by Avherald.com.
Article source

You can read 2 more free articles without a subscription.

Subscribe now and continue reading without any limits!

Are you a subscriber? Login
Subscribe

Read unlimited articles and receive our daily update briefing. Gain better insights into what is happening in commercial aviation safety.

Send tip

Support AeroInside by sending a small tip amount.

Related articles

Newest articles

Subscribe today

Are you researching aviation incidents? Get access to AeroInside Insights, unlimited read access and receive the daily newsletter.

Pick your plan and subscribe

Partner

Blockaviation logo

A new way to document and demonstrate airworthiness compliance and aircraft value. Find out more.

ELITE Logo

ELITE Simulation Solutions is a leading global provider of Flight Simulation Training Devices, IFR training software as well as flight controls and related services. Find out more.

Blue Altitude Logo

Your regulation partner, specialists in aviation safety and compliance; providing training, auditing, and consultancy services. Find out more.

AeroInside Blog
Popular aircraft
Airbus A320
Boeing 737-800
Boeing 737-800 MAX
Popular airlines
American Airlines
United
Delta
Air Canada
Lufthansa
British Airways